Time;durP1;ratioP1;P1;durP2;ratioP2;P2;SDS_P1;SDS_P2;PMS_P1;PMS_P2;Temp;Humidity;BMP_temperature;BMP_pressure;BME280_temperature;BME280_humidity;BME280_pressure;Samples;Min_cycle;Max_cycle;Signal;HPM_P1;HPM_P2
2022/12/28 00:02:19;;;;;;;;;0.00;0.00;;;;;5.99;75.49;100106.97;5036474;28;8895;-59
2022/12/28 00:04:47;;;;;;;;;0.00;0.00;;;;;5.99;75.49;100085.84;5036679;28;9488;-59
2022/12/28 00:07:14;;;;;;;;;0.20;0.20;;;;;6.02;75.51;100084.81;5036723;28;8822;-60
2022/12/28 00:09:42;;;;;;;;;0.00;0.00;;;;;6.01;75.39;100069.91;5036380;28;8852;-59
2022/12/28 00:12:10;;;;;;;;;1.00;1.00;;;;;6.01;75.45;100065.44;5036386;28;8830;-60
2022/12/28 00:14:38;;;;;;;;;1.00;1.00;;;;;6.02;75.57;100053.09;5036336;28;8814;-60
2022/12/28 00:17:06;;;;;;;;;1.80;1.00;;;;;6.02;75.49;100063.66;5036452;28;8846;-59
2022/12/28 00:19:33;;;;;;;;;1.00;1.00;;;;;6.05;75.22;100063.47;5035658;28;8818;-60
2022/12/28 00:22:01;;;;;;;;;1.00;0.00;;;;;6.07;75.38;100056.31;5036110;28;8826;-57
2022/12/28 00:24:29;;;;;;;;;1.00;1.00;;;;;6.09;75.40;100043.84;5036305;28;8838;-60
2022/12/28 00:26:57;;;;;;;;;0.80;0.40;;;;;6.13;75.39;100045.34;5035418;28;8854;-59
2022/12/28 00:29:25;;;;;;;;;1.00;1.00;;;;;6.15;74.62;100023.19;5036147;28;8825;-59
2022/12/28 00:31:52;;;;;;;;;0.00;0.00;;;;;6.20;75.22;100031.69;5036242;28;8826;-60
2022/12/28 00:34:20;;;;;;;;;0.80;0.80;;;;;6.23;75.03;100004.22;5035508;28;8864;-59
2022/12/28 00:36:48;;;;;;;;;2.20;2.20;;;;;6.27;75.09;100026.88;5036189;28;8818;-60
2022/12/28 00:39:36;;;;;;;;;0.00;0.00;;;;;6.31;74.92;100012.53;5035867;28;8838;-60
2022/12/28 00:42:03;;;;;;;;;0.00;0.00;;;;;6.37;74.92;100007.72;5035768;28;8834;-57
2022/12/28 00:44:31;;;;;;;;;0.00;0.00;;;;;6.44;74.47;100024.91;5034915;28;8857;-59
2022/12/28 00:46:59;;;;;;;;;0.60;0.60;;;;;6.51;74.17;100025.41;5035135;28;9500;-60
2022/12/28 00:49:27;;;;;;;;;0.20;0.20;;;;;6.56;74.56;100015.38;5035079;28;8919;-60
2022/12/28 00:51:55;;;;;;;;;0.00;0.00;;;;;6.59;74.41;100015.19;5034872;28;8834;-59
2022/12/28 00:54:22;;;;;;;;;0.00;0.00;;;;;6.61;74.63;100021.22;5035350;28;8943;-60
2022/12/28 00:56:51;;;;;;;;;0.20;0.20;;;;;6.63;74.25;100032.56;5035555;28;8841;-59
2022/12/28 00:59:18;;;;;;;;;0.80;0.80;;;;;6.65;74.26;100005.06;5035454;28;8864;-60
2022/12/28 01:01:46;;;;;;;;;0.80;0.00;;;;;6.65;74.28;100017.44;5035779;28;8825;-59
2022/12/28 01:04:14;;;;;;;;;0.60;0.60;;;;;6.66;74.29;100011.22;5035631;28;8839;-60
2022/12/28 01:06:42;;;;;;;;;1.00;0.00;;;;;6.66;74.32;100003.28;5035425;28;8836;-58
2022/12/28 01:09:10;;;;;;;;;1.40;1.00;;;;;6.66;74.29;100017.34;5035335;28;8824;-60
2022/12/28 01:11:37;;;;;;;;;0.00;0.00;;;;;6.65;74.13;99991.84;5035501;28;9498;-60
2022/12/28 01:14:05;;;;;;;;;0.20;0.20;;;;;6.65;74.25;100013.00;5037093;28;8950;-59
2022/12/28 01:16:32;;;;;;;;;1.00;0.40;;;;;6.65;74.45;100017.44;5035625;28;8832;-57
2022/12/28 01:19:00;;;;;;;;;0.00;0.00;;;;;6.61;74.36;99994.78;5035422;28;8848;-57
2022/12/28 01:21:28;;;;;;;;;0.00;0.00;;;;;6.53;74.88;100008.47;5035485;28;8908;-58
2022/12/28 01:23:56;;;;;;;;;1.00;1.00;;;;;6.45;75.22;99999.31;5035598;28;8832;-57
2022/12/28 01:26:23;;;;;;;;;0.80;0.80;;;;;6.36;75.32;99986.69;5035133;28;8865;-58
2022/12/28 01:28:52;;;;;;;;;0.00;0.00;;;;;6.28;75.70;99991.56;5035207;28;8832;-57
2022/12/28 01:31:20;;;;;;;;;1.00;1.00;;;;;6.20;75.90;99985.88;5035043;28;8828;-59
2022/12/28 01:33:48;;;;;;;;;0.00;0.00;;;;;6.12;76.53;99983.72;5035304;28;8942;-57
2022/12/28 01:36:16;;;;;;;;;0.00;0.00;;;;;6.07;76.45;99966.47;5035551;28;8832;-59
2022/12/28 01:38:43;;;;;;;;;0.40;0.40;;;;;6.02;76.56;99953.53;5037640;28;9507;-57
2022/12/28 01:41:11;;;;;;;;;0.00;0.00;;;;;5.99;76.98;99952.88;5039354;28;8837;-59
2022/12/28 01:43:39;;;;;;;;;0.00;0.00;;;;;5.97;77.28;99947.66;5039283;28;8947;-59
2022/12/28 01:46:07;;;;;;;;;0.40;0.40;;;;;5.98;76.75;99943.22;5039237;28;8837;-58
2022/12/28 01:48:34;;;;;;;;;1.00;1.00;;;;;5.98;77.42;99953.78;5039454;28;9564;-57
2022/12/28 01:51:02;;;;;;;;;1.00;1.00;;;;;5.98;77.28;99941.44;5038959;28;8852;-60
2022/12/28 01:53:30;;;;;;;;;0.60;0.60;;;;;6.01;77.51;99935.94;5038703;28;9484;-57
2022/12/28 01:55:57;;;;;;;;;1.00;1.00;;;;;6.04;77.51;99930.50;5038730;28;8830;-58
2022/12/28 01:58:25;;;;;;;;;1.80;1.80;;;;;6.03;77.51;99922.66;5038972;28;8818;-59
2022/12/28 02:00:53;;;;;;;;;1.00;0.40;;;;;6.01;77.62;99920.09;5039014;28;8818;-59
2022/12/28 02:03:21;;;;;;;;;3.80;1.00;;;;;6.00;77.98;99918.41;5038657;28;8822;-59
2022/12/28 02:05:48;;;;;;;;;0.00;0.00;;;;;5.99;78.39;99911.41;5038754;28;8865;-59
2022/12/28 02:08:16;;;;;;;;;0.00;0.00;;;;;6.01;77.71;99906.03;5038890;28;8818;-59
2022/12/28 02:10:44;;;;;;;;;1.00;1.00;;;;;6.03;78.37;99912.94;5038988;28;8852;-59
2022/12/28 02:13:12;;;;;;;;;0.00;0.00;;;;;6.07;78.31;99909.16;5038949;28;8822;-59
2022/12/28 02:15:40;;;;;;;;;1.00;1.00;;;;;6.13;78.03;99892.91;5038675;28;8923;-59
2022/12/28 02:18:08;;;;;;;;;1.00;1.00;;;;;6.16;78.14;99897.16;5038785;28;8845;-59
2022/12/28 02:20:35;;;;;;;;;1.00;0.60;;;;;6.20;78.11;99896.00;5038462;28;8833;-59
2022/12/28 02:23:03;;;;;;;;;1.40;1.00;;;;;6.24;78.28;99881.66;5038618;28;8945;-59
2022/12/28 02:25:31;;;;;;;;;0.00;0.00;;;;;6.28;78.11;99877.88;5037842;28;8863;-59
2022/12/28 02:27:59;;;;;;;;;3.00;1.00;;;;;6.33;78.28;99889.00;5037752;28;8824;-60
2022/12/28 02:30:26;;;;;;;;;1.00;1.00;;;;;6.39;78.26;99878.91;5038163;28;8812;-59
2022/12/28 02:32:54;;;;;;;;;2.20;2.20;;;;;6.46;77.71;99877.53;5038158;28;8809;-58
2022/12/28 02:35:22;;;;;;;;;1.00;1.00;;;;;6.51;78.67;99853.47;5037697;28;8829;-59
2022/12/28 02:37:50;;;;;;;;;0.00;0.00;;;;;6.52;78.25;99840.13;5037716;28;8902;-59
2022/12/28 02:40:18;;;;;;;;;0.40;0.40;;;;;6.56;78.39;99854.88;5038424;28;8848;-60
2022/12/28 02:42:45;;;;;;;;;1.40;1.00;;;;;6.60;78.74;99834.34;5038047;28;8825;-59
2022/12/28 02:50:49;;;;;;;;;1.00;0.80;;;;;6.69;78.06;99809.94;4964583;28;8950;-60
2022/12/28 02:53:16;;;;;;;;;1.00;1.00;;;;;6.69;78.45;99816.06;5038138;28;8809;-59
2022/12/28 02:58:30;;;;;;;;;0.00;0.00;;;;;6.75;78.28;99778.63;5037803;28;8808;-59
2022/12/28 03:00:57;;;;;;;;;0.20;0.20;;;;;6.76;77.92;99796.19;5037579;28;8816;-58
2022/12/28 03:03:25;;;;;;;;;1.00;0.60;;;;;6.77;78.44;99803.19;5037295;28;8838;-59
2022/12/28 03:08:45;;;;;;;;;2.20;2.20;;;;;6.76;78.23;99785.59;5033179;28;8805;-59
2022/12/28 03:11:13;;;;;;;;;0.20;0.20;;;;;6.77;79.25;99770.59;5036912;28;8824;-59
2022/12/28 03:13:45;;;;;;;;;2.60;1.00;;;;;6.77;78.76;99775.88;5036985;28;8816;-59
2022/12/28 03:16:13;;;;;;;;;1.00;0.40;;;;;6.78;78.67;99777.56;5037106;28;8890;-59
2022/12/28 03:32:26;;;;;;;;;0.00;0.00;;;;;6.96;78.87;99757.84;5037394;28;8951;-59
2022/12/28 03:34:54;;;;;;;;;1.00;0.80;;;;;6.99;79.16;99747.03;5036680;28;8908;-57
2022/12/28 03:37:24;;;;;;;;;1.00;1.00;;;;;7.01;79.16;99731.88;5037094;28;8829;-58
2022/12/28 03:39:52;;;;;;;;;1.00;0.20;;;;;7.00;78.96;99727.53;5036956;28;8829;-59
2022/12/28 03:45:20;;;;;;;;;1.00;1.00;;;;;7.01;79.05;99711.56;5036701;28;8846;-58
2022/12/28 03:48:01;;;;;;;;;1.00;1.00;;;;;7.05;79.38;99697.13;5033013;28;8850;-57
2022/12/28 03:50:29;;;;;;;;;1.80;1.80;;;;;7.07;79.24;99691.75;5036915;28;8838;-60
2022/12/28 03:52:57;;;;;;;;;2.50;2.00;;;;;7.07;79.18;99683.81;5036865;28;8828;-58
2022/12/28 03:55:24;;;;;;;;;0.50;0.00;;;;;7.10;78.92;99688.88;5036753;28;8829;-58
2022/12/28 03:57:52;;;;;;;;;1.00;1.00;;;;;7.13;78.75;99693.97;5036207;28;8809;-57
2022/12/28 04:00:20;;;;;;;;;0.00;0.00;;;;;7.16;78.66;99685.81;5035560;28;8844;-57
2022/12/28 04:02:48;;;;;;;;;0.60;0.60;;;;;7.18;78.65;99675.94;5036181;28;8856;-58
2022/12/28 04:05:15;;;;;;;;;1.00;1.00;;;;;7.20;79.21;99661.66;5035818;28;8916;-57
2022/12/28 04:07:43;;;;;;;;;0.00;0.00;;;;;7.24;79.08;99679.03;5036053;28;8801;-58
2022/12/28 04:10:11;;;;;;;;;1.00;1.00;;;;;7.29;78.98;99684.00;5036471;28;8824;-57
2022/12/28 04:12:38;;;;;;;;;1.50;1.00;;;;;7.34;79.27;99679.25;5036122;28;8947;-57
2022/12/28 04:15:06;;;;;;;;;1.00;1.00;;;;;7.36;78.66;99683.44;5035607;28;8829;-59
2022/12/28 04:17:34;;;;;;;;;0.00;0.00;;;;;7.40;78.74;99686.72;5036184;28;8839;-60
2022/12/28 04:20:02;;;;;;;;;1.50;1.50;;;;;7.41;78.86;99681.34;5035714;28;8824;-58
2022/12/28 04:22:29;;;;;;;;;3.25;3.00;;;;;7.43;79.25;99697.13;5036345;28;8855;-57
2022/12/28 04:24:57;;;;;;;;;2.00;1.50;;;;;7.47;78.83;99670.31;5036019;28;8820;-59
2022/12/28 04:27:25;;;;;;;;;0.75;0.75;;;;;7.48;79.05;99648.16;5035961;28;8829;-56
2022/12/28 04:29:52;;;;;;;;;2.00;2.00;;;;;7.48;79.19;99644.66;5035713;28;8843;-58
2022/12/28 04:32:20;;;;;;;;;1.00;1.00;;;;;7.47;79.03;99638.53;5035479;28;8801;-58
2022/12/28 04:34:48;;;;;;;;;0.25;0.00;;;;;7.46;79.49;99642.13;5035837;28;8871;-57
2022/12/28 04:37:15;;;;;;;;;1.00;1.00;;;;;7.44;79.46;99641.38;5035675;28;8813;-59
2022/12/28 04:39:43;;;;;;;;;1.00;1.00;;;;;7.46;79.43;99642.13;5035567;28;8903;-57
2022/12/28 04:42:23;;;;;;;;;1.00;1.00;;;;;7.48;79.66;99628.75;5035778;28;8835;-57
2022/12/28 04:44:51;;;;;;;;;1.00;1.00;;;;;7.49;79.25;99617.22;5035295;28;9540;-59
2022/12/28 04:47:18;;;;;;;;;1.00;1.00;;;;;7.50;79.61;99640.94;5035963;28;8841;-57
2022/12/28 04:49:46;;;;;;;;;0.75;0.75;;;;;7.55;79.46;99630.00;5036309;28;8840;-57
2022/12/28 04:52:13;;;;;;;;;1.50;1.00;;;;;7.58;79.31;99603.31;5035052;28;8833;-59
2022/12/28 04:54:41;;;;;;;;;0.00;0.00;;;;;7.60;79.29;99614.63;5035791;28;8836;-59
2022/12/28 04:57:09;;;;;;;;;0.50;0.50;;;;;7.64;79.46;99629.38;5035667;28;8833;-59
2022/12/28 04:59:39;;;;;;;;;0.25;0.25;;;;;7.65;79.49;99610.69;5035173;28;8844;-57
2022/12/28 05:02:07;;;;;;;;;3.00;2.00;;;;;7.68;79.03;99593.72;5035636;28;8836;-59
2022/12/28 05:04:35;;;;;;;;;1.00;0.75;;;;;7.70;79.30;99608.56;5035289;28;8855;-59
2022/12/28 05:07:02;;;;;;;;;1.00;0.25;;;;;7.73;78.96;99587.13;5034801;28;8843;-58
2022/12/28 05:09:30;;;;;;;;;0.25;0.25;;;;;7.74;79.30;99608.22;5035330;28;8855;-57
2022/12/28 05:11:57;;;;;;;;;1.00;0.50;;;;;7.76;78.96;99586.91;5036302;28;8895;-57
2022/12/28 05:14:25;;;;;;;;;0.00;0.00;;;;;7.78;78.82;99591.13;5039462;28;8994;-60
2022/12/28 05:16:58;;;;;;;;;0.00;0.00;;;;;7.83;79.13;99598.75;5039191;28;8840;-60
2022/12/28 05:19:26;;;;;;;;;2.00;1.00;;;;;7.85;79.02;99596.81;5039534;28;8828;-59
2022/12/28 05:21:54;;;;;;;;;0.75;0.75;;;;;7.85;79.21;99592.34;5039108;28;8857;-57
2022/12/28 05:24:22;;;;;;;;;0.00;0.00;;;;;7.86;78.99;99579.97;5038951;28;8943;-57
2022/12/28 05:26:50;;;;;;;;;2.00;1.75;;;;;7.85;79.64;99586.22;5039421;28;8822;-59
2022/12/28 05:29:18;;;;;;;;;1.00;0.50;;;;;7.76;79.97;99585.09;5039310;28;8845;-59
2022/12/28 05:31:45;;;;;;;;;1.00;1.00;;;;;7.65;79.85;99592.13;5039372;28;8826;-59
2022/12/28 05:34:13;;;;;;;;;2.00;2.00;;;;;7.52;80.86;99599.31;5019464;28;8856;-58
2022/12/28 05:36:42;;;;;;;;;0.50;0.50;;;;;7.44;80.86;99601.63;5019274;28;8933;-56
2022/12/28 05:39:09;;;;;;;;;1.00;1.00;;;;;7.40;81.28;99607.28;5019556;28;8873;-58
2022/12/28 05:41:37;;;;;;;;;4.25;4.25;;;;;7.36;81.29;99604.00;5019147;28;8830;-58
2022/12/28 05:44:05;;;;;;;;;1.00;1.00;;;;;7.34;81.29;99610.38;5019463;28;8842;-58
2022/12/28 05:46:32;;;;;;;;;1.00;1.00;;;;;7.34;81.21;99602.44;5028362;28;8840;-59
2022/12/28 05:49:00;;;;;;;;;0.00;0.00;;;;;7.34;81.59;99603.25;5039394;28;8840;-58
2022/12/28 05:51:28;;;;;;;;;0.00;0.00;;;;;7.37;81.56;99618.09;5038637;28;9568;-58
2022/12/28 05:53:56;;;;;;;;;1.00;1.00;;;;;7.39;81.63;99587.91;5038863;28;8805;-58
2022/12/28 05:56:23;;;;;;;;;1.00;0.50;;;;;7.45;81.90;99589.25;5038187;28;8828;-57
2022/12/28 05:58:51;;;;;;;;;0.75;0.75;;;;;7.50;81.54;99589.78;5038128;28;9281;-59
2022/12/28 06:01:18;;;;;;;;;0.00;0.00;;;;;7.54;81.38;99583.28;5037464;28;8911;-59
2022/12/28 06:03:46;;;;;;;;;0.50;0.50;;;;;7.57;81.96;99591.84;5036980;28;8821;-57
2022/12/28 06:06:14;;;;;;;;;0.00;0.00;;;;;7.62;82.01;99568.53;5037701;28;8863;-58
2022/12/28 06:08:42;;;;;;;;;0.50;0.50;;;;;7.69;81.32;99590.97;5037800;28;8838;-58
2022/12/28 06:11:09;;;;;;;;;3.25;3.00;;;;;7.72;81.51;99579.28;5038173;28;8810;-58
2022/12/28 06:13:37;;;;;;;;;3.00;3.00;;;;;7.75;81.29;99566.66;5038569;28;8855;-59
2022/12/28 06:16:05;;;;;;;;;1.00;1.00;;;;;7.77;81.55;99578.00;5038551;28;8829;-58
2022/12/28 06:18:32;;;;;;;;;1.00;1.00;;;;;7.72;81.36;99575.69;5038705;28;8837;-58
2022/12/28 06:21:00;;;;;;;;;0.75;0.75;;;;;7.68;81.88;99574.22;5038345;28;8876;-59
2022/12/28 06:23:28;;;;;;;;;2.50;1.50;;;;;7.67;81.94;99582.28;5036784;28;8856;-56
2022/12/28 06:25:55;;;;;;;;;0.50;0.50;;;;;7.68;82.10;99571.56;5037807;28;8845;-59
2022/12/28 06:28:24;;;;;;;;;1.50;1.50;;;;;7.69;82.55;99583.84;5038054;28;8824;-58
2022/12/28 06:30:51;;;;;;;;;1.00;1.00;;;;;7.72;82.56;99580.13;5037914;28;8820;-57
2022/12/28 06:33:19;;;;;;;;;2.00;0.00;;;;;7.74;82.77;99580.84;5037538;28;8817;-58
2022/12/28 06:35:47;;;;;;;;;0.25;0.25;;;;;7.74;82.72;99581.72;5037756;28;8839;-57
2022/12/28 06:38:14;;;;;;;;;1.00;0.25;;;;;7.73;82.35;99577.38;5038231;28;8836;-58
2022/12/28 06:40:42;;;;;;;;;1.00;0.00;;;;;7.72;82.28;99586.28;5037865;28;8832;-56
2022/12/28 06:43:29;;;;;;;;;0.00;0.00;;;;;7.72;82.89;99575.69;5037743;28;8914;-59
2022/12/28 06:45:57;;;;;;;;;0.75;0.75;;;;;7.72;82.79;99578.34;5037670;28;9490;-59
2022/12/28 06:48:25;;;;;;;;;1.00;1.00;;;;;7.73;82.64;99577.38;5037318;28;8821;-58
2022/12/28 06:50:53;;;;;;;;;0.50;0.00;;;;;7.76;83.02;99579.78;5037592;28;8825;-58
2022/12/28 06:53:20;;;;;;;;;1.00;1.00;;;;;7.75;83.31;99578.09;5038038;28;8812;-58
2022/12/28 06:55:48;;;;;;;;;1.00;1.00;;;;;7.72;83.56;99575.69;5037698;28;8797;-57
2022/12/28 06:58:16;;;;;;;;;1.00;1.00;;;;;7.69;83.81;99575.06;5037414;28;8829;-57
2022/12/28 07:00:43;;;;;;;;;0.00;0.00;;;;;7.68;83.75;99591.06;5037717;28;9506;-58
2022/12/28 07:03:12;;;;;;;;;1.00;1.00;;;;;7.67;84.04;99578.78;5037706;28;8832;-58
2022/12/28 07:05:39;;;;;;;;;0.25;0.00;;;;;7.67;84.12;99576.13;5036597;28;8817;-57
2022/12/28 07:08:07;;;;;;;;;0.00;0.00;;;;;7.65;84.22;99583.34;5036783;28;8859;-57
2022/12/28 07:10:39;;;;;;;;;0.00;0.00;;;;;7.66;84.19;99587.69;5035767;28;8834;-57
2022/12/28 07:13:07;;;;;;;;;0.00;0.00;;;;;7.67;84.13;99570.84;5035835;28;8878;-59
2022/12/28 07:15:35;;;;;;;;;0.75;0.50;;;;;7.68;84.16;99572.50;5035580;28;8824;-57
2022/12/28 07:18:02;;;;;;;;;0.50;0.50;;;;;7.68;84.55;99571.56;5036425;28;8864;-58
2022/12/28 07:20:30;;;;;;;;;0.00;0.00;;;;;7.68;84.21;99574.22;5036621;28;8818;-56
2022/12/28 07:23:06;;;;;;;;;1.00;1.00;;;;;7.68;84.77;99566.25;5036701;28;8826;-58
2022/12/28 07:25:34;;;;;;;;;0.00;0.00;;;;;7.69;85.01;99575.88;5037178;28;8858;-59
2022/12/28 07:28:01;;;;;;;;;0.00;0.00;;;;;7.69;84.95;99581.19;5037213;28;8830;-59
2022/12/28 07:30:29;;;;;;;;;1.00;1.00;;;;;7.70;85.21;99580.22;5037327;28;8830;-59
2022/12/28 07:32:58;;;;;;;;;0.00;0.00;;;;;7.69;85.01;99565.28;5037411;28;8820;-59
2022/12/28 07:35:26;;;;;;;;;0.00;0.00;;;;;7.69;85.03;99560.00;5036503;28;8836;-59
2022/12/28 07:37:53;;;;;;;;;0.00;0.00;;;;;7.70;85.26;99564.31;5036956;28;8848;-57
2022/12/28 07:40:21;;;;;;;;;1.00;0.75;;;;;7.72;85.39;99565.09;5037151;28;8824;-57
2022/12/28 07:42:48;;;;;;;;;0.00;0.00;;;;;7.74;84.97;99570.25;5037033;28;8832;-58
2022/12/28 07:45:16;;;;;;;;;0.67;0.67;;;;;7.74;85.64;99567.59;5036767;28;8844;-58
2022/12/28 07:47:44;;;;;;;;;0.00;0.00;;;;;7.73;85.48;99566.78;5036548;28;8863;-57
2022/12/28 07:50:11;;;;;;;;;0.00;0.00;;;;;7.74;85.46;99555.22;5036076;28;8848;-57
2022/12/28 07:52:39;;;;;;;;;1.00;1.00;;;;;7.75;85.21;99548.94;5036292;28;8804;-57
2022/12/28 07:55:07;;;;;;;;;0.00;0.00;;;;;7.77;84.89;99554.97;5036507;28;8825;-58
2022/12/28 07:57:36;;;;;;;;;0.00;0.00;;;;;7.81;85.25;99558.25;5036652;28;9589;-59
2022/12/28 08:00:03;;;;;;;;;0.00;0.00;;;;;7.84;85.38;99558.03;5036495;28;8824;-57
2022/12/28 08:02:31;;;;;;;;;0.00;0.00;;;;;7.89;85.11;99554.06;5035008;28;9605;-58
2022/12/28 08:04:59;;;;;;;;;1.00;0.50;;;;;7.94;85.45;99565.19;5036289;28;9494;-58
2022/12/28 08:07:27;;;;;;;;;0.50;0.00;;;;;7.98;85.41;99558.66;5036322;28;8840;-58
2022/12/28 08:09:55;;;;;;;;;0.00;0.00;;;;;8.02;85.06;99560.16;5035625;28;8821;-57
2022/12/28 08:12:22;;;;;;;;;1.00;0.75;;;;;8.06;85.13;99556.28;5035912;28;8824;-59
2022/12/28 08:14:50;;;;;;;;;1.00;0.25;;;;;8.09;84.83;99556.06;5035567;28;8852;-59
2022/12/28 08:17:18;;;;;;;;;1.00;1.00;;;;;8.13;84.91;99560.16;5035307;28;8825;-57
2022/12/28 08:19:48;;;;;;;;;0.50;0.50;;;;;8.16;84.30;99557.31;5033857;28;8833;-57
2022/12/28 08:22:16;;;;;;;;;3.00;1.00;;;;;8.21;84.29;99562.28;5033896;28;8820;-57
2022/12/28 08:24:44;;;;;;;;;0.00;0.00;;;;;8.24;84.28;99554.94;5034448;28;8810;-58
2022/12/28 08:27:12;;;;;;;;;1.00;1.00;;;;;8.26;84.72;99560.97;5034446;28;8976;-57
2022/12/28 08:29:40;;;;;;;;;1.00;1.00;;;;;8.31;83.98;99565.91;5032997;28;8825;-59
2022/12/28 08:32:08;;;;;;;;;0.75;0.75;;;;;8.33;84.11;99559.53;5033312;28;8821;-57
2022/12/28 08:34:36;;;;;;;;;0.00;0.00;;;;;8.35;84.35;99565.56;5034111;28;8833;-57
2022/12/28 08:37:04;;;;;;;;;1.00;1.00;;;;;8.38;83.94;99570.63;5035148;28;8821;-58
2022/12/28 08:39:32;;;;;;;;;1.00;1.00;;;;;8.40;83.92;99563.41;5034631;28;8797;-59
2022/12/28 08:42:00;;;;;;;;;1.50;1.00;;;;;8.42;84.21;99566.78;5034889;28;8828;-59
2022/12/28 08:44:28;;;;;;;;;0.25;0.00;;;;;8.45;84.37;99552.44;5035005;28;8983;-57
2022/12/28 08:46:56;;;;;;;;;0.00;0.00;;;;;8.47;84.09;99555.81;5034781;28;9545;-59
2022/12/28 08:49:24;;;;;;;;;0.00;0.00;;;;;8.48;84.04;99552.19;5034908;28;8994;-57
2022/12/28 08:51:52;;;;;;;;;0.25;0.00;;;;;8.51;83.93;99554.63;5033954;28;8817;-56
2022/12/28 08:54:20;;;;;;;;;0.25;0.00;;;;;8.53;83.91;99550.03;5033447;28;8836;-56
2022/12/28 08:56:48;;;;;;;;;0.00;0.00;;;;;8.55;84.13;99553.41;5033825;28;8872;-56
2022/12/28 08:59:17;;;;;;;;;0.50;0.50;;;;;8.57;84.13;99548.81;5034273;28;8828;-58
2022/12/28 09:01:45;;;;;;;;;0.00;0.00;;;;;8.58;84.19;99547.88;5033943;28;8809;-58
2022/12/28 09:04:14;;;;;;;;;0.25;0.00;;;;;8.61;83.85;99547.63;5033572;28;8848;-58
2022/12/28 09:06:41;;;;;;;;;0.00;0.00;;;;;8.63;83.96;99557.16;5023180;28;8820;-58
2022/12/28 09:09:09;;;;;;;;;0.00;0.00;;;;;8.65;83.93;99552.56;5034147;28;8828;-57
2022/12/28 09:11:37;;;;;;;;;0.00;0.00;;;;;8.68;83.72;99546.19;5033649;28;9572;-58
2022/12/28 09:14:05;;;;;;;;;0.00;0.00;;;;;8.71;83.67;99553.91;5033635;28;8966;-58
2022/12/28 09:16:33;;;;;;;;;0.00;0.00;;;;;8.72;83.76;99556.44;5032795;28;8829;-59
2022/12/28 09:19:01;;;;;;;;;0.00;0.00;;;;;8.74;83.56;99565.13;5033488;28;8976;-61
2022/12/28 09:21:28;;;;;;;;;1.00;0.75;;;;;8.76;83.80;99563.22;5032326;28;8835;-57
2022/12/28 09:23:56;;;;;;;;;1.00;1.00;;;;;8.78;83.81;99569.25;5032675;28;8902;-57
2022/12/28 09:26:24;;;;;;;;;0.00;0.00;;;;;8.80;83.53;99569.97;5033011;28;8868;-59
2022/12/28 09:28:52;;;;;;;;;0.00;0.00;;;;;8.82;83.92;99560.06;5033265;28;8926;-59
2022/12/28 09:31:20;;;;;;;;;1.50;1.50;;;;;8.83;83.52;99560.91;5033352;28;8828;-57
2022/12/28 09:34:00;;;;;;;;;1.00;1.00;;;;;8.85;83.57;99569.59;5033797;28;8829;-59
2022/12/28 09:36:48;;;;;;;;;0.00;0.00;;;;;8.88;83.17;99575.50;5034081;28;9581;-60
2022/12/28 09:39:16;;;;;;;;;1.00;1.00;;;;;8.90;83.20;99562.13;5034253;28;8979;-59
2022/12/28 09:41:46;;;;;;;;;0.75;0.75;;;;;8.90;83.32;99557.63;5033929;28;8829;-57
2022/12/28 09:44:14;;;;;;;;;0.50;0.50;;;;;8.95;83.25;99566.09;5033427;28;8829;-59
2022/12/28 09:46:42;;;;;;;;;1.00;1.00;;;;;8.99;83.06;99564.03;5033806;28;8853;-58
2022/12/28 09:49:15;;;;;;;;;0.00;0.00;;;;;9.02;83.00;99554.03;5033311;28;8852;-59
2022/12/28 09:51:43;;;;;;;;;0.00;0.00;;;;;9.07;82.96;99564.28;5033470;28;8906;-60
2022/12/28 09:54:11;;;;;;;;;0.00;0.00;;;;;9.10;82.47;99548.94;5033874;28;8828;-59
2022/12/28 09:56:39;;;;;;;;;0.00;0.00;;;;;9.12;82.67;99565.59;5031790;28;8817;-57
2022/12/28 09:59:07;;;;;;;;;0.00;0.00;;;;;9.16;82.83;99559.09;5033529;28;8847;-60
2022/12/28 10:01:34;;;;;;;;;0.00;0.00;;;;;9.18;82.48;99561.63;5037128;28;8853;-59
2022/12/28 10:04:03;;;;;;;;;1.00;1.00;;;;;9.19;82.83;99561.50;5037332;28;8828;-59
2022/12/28 10:06:34;;;;;;;;;0.00;0.00;;;;;9.20;82.26;99563.16;5035277;28;8956;-57
2022/12/28 10:09:01;;;;;;;;;0.00;0.00;;;;;9.23;82.24;99543.50;5036126;28;9486;-58
2022/12/28 10:11:29;;;;;;;;;0.00;0.00;;;;;9.23;82.65;99547.00;5035913;28;8832;-58
2022/12/28 10:13:57;;;;;;;;;0.00;0.00;;;;;9.26;82.48;99545.91;5036886;28;9640;-58
2022/12/28 10:16:25;;;;;;;;;0.25;0.25;;;;;9.27;82.11;99535.16;5036449;28;8843;-56
2022/12/28 10:18:53;;;;;;;;;0.25;0.25;;;;;9.31;81.99;99541.06;5036923;28;8840;-58
2022/12/28 10:21:21;;;;;;;;;0.00;0.00;;;;;9.36;82.09;99534.44;5036700;28;8824;-60
2022/12/28 10:23:58;;;;;;;;;1.00;0.00;;;;;9.41;82.32;99537.53;5017663;28;9509;-58
2022/12/28 10:26:46;;;;;;;;;2.00;0.50;;;;;9.47;81.89;99529.06;5036492;28;8888;-58
2022/12/28 10:29:14;;;;;;;;;0.50;0.50;;;;;9.50;82.01;99520.84;5036857;28;8844;-57
2022/12/28 10:31:42;;;;;;;;;0.00;0.00;;;;;9.52;82.00;99523.38;5035669;28;8808;-56
2022/12/28 10:34:10;;;;;;;;;0.50;0.25;;;;;9.50;81.58;99523.50;5035432;28;8828;-58
2022/12/28 10:36:39;;;;;;;;;0.00;0.00;;;;;9.52;81.86;99524.22;5035047;28;8833;-57
2022/12/28 10:39:07;;;;;;;;;1.00;0.50;;;;;9.58;81.58;99521.03;5035569;28;8840;-57
2022/12/28 10:41:36;;;;;;;;;1.00;1.00;;;;;9.61;81.81;99509.31;5034602;28;8843;-60
2022/12/28 10:44:05;;;;;;;;;0.75;0.75;;;;;9.63;81.48;99494.94;5035281;28;8870;-57
2022/12/28 10:46:53;;;;;;;;;0.25;0.25;;;;;9.65;81.58;99498.31;5034653;28;8852;-58
2022/12/28 10:49:21;;;;;;;;;0.50;0.50;;;;;9.69;81.27;99509.53;5034802;28;8898;-58
2022/12/28 10:51:49;;;;;;;;;0.50;0.25;;;;;9.72;80.82;99494.16;5035404;28;8864;-58
2022/12/28 10:54:17;;;;;;;;;0.00;0.00;;;;;9.78;81.09;99487.53;5035289;28;8844;-57
2022/12/28 10:57:05;;;;;;;;;0.00;0.00;;;;;9.83;80.54;99494.13;5035298;28;8847;-57
2022/12/28 10:59:33;;;;;;;;;0.75;0.75;;;;;9.90;80.98;99490.00;5036158;28;8831;-59
2022/12/28 11:02:00;;;;;;;;;0.50;0.00;;;;;9.97;80.22;99480.53;5034927;28;8828;-60
2022/12/28 11:04:30;;;;;;;;;0.50;0.50;;;;;10.01;80.59;99465.97;5036420;28;9560;-60
2022/12/28 11:06:59;;;;;;;;;0.25;0.25;;;;;10.06;80.40;99481.56;5035621;28;9766;-57
2022/12/28 11:09:27;;;;;;;;;1.00;1.00;;;;;10.09;80.82;99466.19;5033515;28;8844;-59
2022/12/28 11:11:55;;;;;;;;;0.25;0.25;;;;;10.11;79.90;99458.91;5034178;28;8931;-59
2022/12/28 11:14:23;;;;;;;;;0.50;0.50;;;;;10.14;79.89;99453.34;5034095;28;8820;-59
2022/12/28 11:16:52;;;;;;;;;0.00;0.00;;;;;10.16;79.76;99437.28;5033651;28;8860;-59
2022/12/28 11:19:19;;;;;;;;;0.00;0.00;;;;;10.17;80.04;99453.09;5033537;28;8814;-57
2022/12/28 11:21:47;;;;;;;;;1.00;1.00;;;;;10.20;79.76;99458.16;5033479;28;8860;-57
2022/12/28 11:24:16;;;;;;;;;0.75;0.75;;;;;10.22;79.81;99445.56;5034101;28;8834;-59
2022/12/28 11:26:44;;;;;;;;;0.00;0.00;;;;;10.27;79.84;99432.72;5033993;28;8838;-56
2022/12/28 11:29:12;;;;;;;;;1.00;1.00;;;;;10.36;79.49;99431.91;5033976;28;8911;-59
2022/12/28 11:31:40;;;;;;;;;0.50;0.50;;;;;10.44;79.33;99436.53;5034112;28;8938;-60
2022/12/28 11:34:09;;;;;;;;;1.00;0.00;;;;;10.51;78.68;99427.06;5033175;28;8836;-60
2022/12/28 11:36:37;;;;;;;;;0.00;0.00;;;;;10.54;78.74;99430.28;5032434;28;8833;-57
2022/12/28 11:39:05;;;;;;;;;0.25;0.25;;;;;10.59;78.57;99427.22;5032382;28;8974;-58
2022/12/28 11:41:33;;;;;;;;;0.00;0.00;;;;;10.60;78.62;99434.22;5033223;28;9498;-56
2022/12/28 11:44:03;;;;;;;;;0.00;0.00;;;;;10.60;78.98;99419.09;5033881;28;8859;-57
2022/12/28 11:46:31;;;;;;;;;1.00;1.00;;;;;10.67;78.84;99414.94;5033313;28;8829;-58
2022/12/28 11:48:59;;;;;;;;;0.00;0.00;;;;;10.74;78.33;99420.53;5033923;28;8844;-57
2022/12/28 11:51:27;;;;;;;;;0.25;0.25;;;;;10.73;78.09;99416.19;5033696;28;9015;-58
2022/12/28 11:53:56;;;;;;;;;0.25;0.25;;;;;10.68;78.16;99413.94;5033685;28;8824;-57
2022/12/28 11:56:24;;;;;;;;;1.00;1.00;;;;;10.64;78.42;99427.66;5032709;28;8844;-59
2022/12/28 11:58:52;;;;;;;;;0.75;0.75;;;;;10.58;78.46;99423.72;5032268;28;8820;-57
2022/12/28 12:01:20;;;;;;;;;1.00;1.00;;;;;10.57;78.61;99400.75;5032027;28;8844;-60
2022/12/28 12:03:48;;;;;;;;;0.00;0.00;;;;;10.70;77.71;99405.84;5033186;28;8890;-58
2022/12/28 12:06:16;;;;;;;;;2.50;2.00;;;;;10.84;77.87;99408.13;5033504;28;8825;-57
2022/12/28 12:08:44;;;;;;;;;0.00;0.00;;;;;10.88;77.31;99406.84;5033534;28;8821;-60
2022/12/28 12:11:12;;;;;;;;;1.00;1.00;;;;;10.85;77.56;99404.47;5032838;28;8849;-57
2022/12/28 12:13:41;;;;;;;;;0.00;0.00;;;;;10.79;77.48;99397.88;5034092;28;8933;-58
2022/12/28 12:16:09;;;;;;;;;0.00;0.00;;;;;10.76;77.57;99398.13;5033788;28;8840;-58
2022/12/28 12:18:37;;;;;;;;;1.00;0.50;;;;;10.73;77.66;99400.22;5033644;28;8910;-57
2022/12/28 12:21:05;;;;;;;;;1.00;1.00;;;;;10.70;77.35;99401.34;5032474;28;8971;-59
2022/12/28 12:23:42;;;;;;;;;0.00;0.00;;;;;10.65;78.13;99408.91;5033249;28;9545;-58